Time;durP1;ratioP1;P1;durP2;ratioP2;P2;SDS_P1;SDS_P2;PMS_P1;PMS_P2;Temp;Humidity;BMP_temperature;BMP_pressure;BME280_temperature;BME280_humidity;BME280_pressure;Samples;Min_cycle;Max_cycle;Signal;HPM_P1;HPM_P2
2021/07/05 00:00:20;;;;;;;14.10;4.38;;;;;;;15.97;91.95;101067.63;4973404;28;20058;-68
2021/07/05 00:02:48;;;;;;;9.88;3.63;;;;;;;15.92;91.37;101064.28;4974198;28;20605;-68
2021/07/05 00:05:16;;;;;;;10.48;3.53;;;;;;;15.85;90.80;101063.72;4977003;28;20120;-68
2021/07/05 00:07:47;;;;;;;8.35;4.35;;;;;;;15.80;90.46;101056.81;4972438;28;20070;-68
2021/07/05 00:10:19;;;;;;;7.85;2.80;;;;;;;15.77;89.53;101059.69;4977372;28;20468;-68
2021/07/05 00:12:48;;;;;;;9.73;3.72;;;;;;;15.75;89.29;101053.44;4975538;28;20054;-70
2021/07/05 00:15:20;;;;;;;4.88;2.40;;;;;;;15.75;89.57;101040.00;4976844;28;20335;-68
2021/07/05 00:17:49;;;;;;;10.52;3.10;;;;;;;15.71;89.48;101050.06;4974919;28;20093;-68
2021/07/05 00:20:17;;;;;;;9.70;2.70;;;;;;;15.69;89.34;101049.25;4973096;28;20559;-69
2021/07/05 00:22:45;;;;;;;7.85;2.50;;;;;;;15.69;89.73;101054.63;4975188;28;20261;-69
2021/07/05 00:25:14;;;;;;;10.20;3.17;;;;;;;15.67;89.52;101043.09;4971526;28;20062;-68
2021/07/05 00:27:43;;;;;;;9.63;3.42;;;;;;;15.64;88.21;101035.16;4975884;28;20058;-69
2021/07/05 00:30:14;;;;;;;8.95;3.20;;;;;;;15.56;88.69;101050.81;4975689;28;20412;-69
2021/07/05 00:32:42;;;;;;;8.93;2.97;;;;;;;15.54;88.81;101058.97;4973707;28;20449;-68
2021/07/05 00:35:11;;;;;;;9.25;3.28;;;;;;;15.52;87.96;101052.78;4975483;28;20066;-68
2021/07/05 00:37:40;;;;;;;11.57;3.28;;;;;;;15.51;87.98;101048.38;4973830;28;20098;-68
2021/07/05 00:40:10;;;;;;;15.45;3.88;;;;;;;15.49;87.64;101052.94;4972449;28;20460;-68
2021/07/05 00:42:38;;;;;;;14.85;4.20;;;;;;;15.48;87.35;101046.69;4977938;28;20112;-68
2021/07/05 00:45:11;;;;;;;9.93;4.00;;;;;;;15.46;86.94;101034.25;4971730;28;20066;-68
2021/07/05 00:47:39;;;;;;;14.63;4.47;;;;;;;15.41;86.74;101041.69;4974379;28;20059;-68
2021/07/05 00:50:09;;;;;;;16.13;4.50;;;;;;;15.39;86.35;101038.19;4973239;28;20073;-68
2021/07/05 00:52:40;;;;;;;18.15;5.53;;;;;;;15.39;86.98;101039.09;4976054;28;20105;-70
2021/07/05 00:55:11;;;;;;;11.73;3.97;;;;;;;15.35;86.53;101036.63;4979979;28;20058;-70
2021/07/05 00:57:39;;;;;;;12.52;3.85;;;;;;;15.35;86.86;101034.78;4975507;28;20070;-69
2021/07/05 01:00:11;;;;;;;14.27;4.18;;;;;;;15.28;87.10;101031.53;4973958;28;20362;-70
2021/07/05 01:02:39;;;;;;;11.80;4.07;;;;;;;15.29;86.31;101037.81;4977601;28;20194;-70
2021/07/05 01:05:09;;;;;;;13.20;4.13;;;;;;;15.25;86.29;101034.38;4971539;28;20145;-70
2021/07/05 01:07:37;;;;;;;15.55;3.80;;;;;;;15.27;86.15;101043.25;4974598;28;20100;-70
2021/07/05 01:10:07;;;;;;;15.02;4.03;;;;;;;15.24;86.39;101037.16;4973837;28;20062;-69
2021/07/05 01:12:35;;;;;;;12.38;4.65;;;;;;;15.20;85.99;101031.03;4977431;28;20445;-70
2021/07/05 01:15:04;;;;;;;9.88;3.90;;;;;;;15.21;85.89;101024.72;4974834;28;20121;-70
2021/07/05 01:17:33;;;;;;;10.30;3.45;;;;;;;15.20;86.21;101016.72;4972980;28;20121;-68
2021/07/05 01:20:01;;;;;;;12.05;3.80;;;;;;;15.18;86.42;101019.50;4979439;28;20474;-70
2021/07/05 01:22:30;;;;;;;9.43;3.60;;;;;;;15.16;86.32;101021.38;4977199;28;20101;-70
2021/07/05 01:24:58;;;;;;;9.18;3.53;;;;;;;15.12;85.88;101023.34;4978733;28;20441;-70
2021/07/05 01:27:26;;;;;;;11.70;4.28;;;;;;;15.11;85.79;101024.28;4975931;28;20393;-70
2021/07/05 01:29:54;;;;;;;10.88;3.50;;;;;;;15.15;85.64;101025.00;4978126;28;20073;-69
2021/07/05 01:32:21;;;;;;;9.43;3.85;;;;;;;15.13;85.94;101032.28;4976699;28;20144;-70
2021/07/05 01:34:50;;;;;;;11.40;4.03;;;;;;;15.08;85.54;101026.25;4979098;28;20128;-70
2021/07/05 01:37:17;;;;;;;11.57;3.97;;;;;;;15.06;86.13;101023.63;4975427;28;20125;-70
2021/07/05 01:39:46;;;;;;;12.65;3.88;;;;;;;15.12;85.95;101019.81;4978585;28;20094;-70
2021/07/05 01:42:14;;;;;;;13.63;4.32;;;;;;;15.05;85.87;101012.97;4972884;28;20051;-69
2021/07/05 01:44:42;;;;;;;9.65;4.00;;;;;;;15.07;86.13;101017.31;4975871;28;20058;-70
2021/07/05 01:47:10;;;;;;;13.73;4.95;;;;;;;15.05;86.67;101015.66;4976117;28;20070;-70
2021/07/05 01:49:39;;;;;;;13.23;3.75;;;;;;;15.04;86.20;101009.41;4978464;28;20054;-68
2021/07/05 01:52:06;;;;;;;11.45;4.43;;;;;;;15.05;86.48;101010.28;4979860;28;20069;-68
2021/07/05 01:54:34;;;;;;;11.00;4.22;;;;;;;15.03;86.99;101006.78;4975028;28;20091;-68
2021/07/05 01:57:03;;;;;;;12.82;4.18;;;;;;;14.99;86.98;101002.53;4979642;28;20118;-68
2021/07/05 01:59:36;;;;;;;10.80;4.35;;;;;;;15.03;87.49;101009.47;4983122;28;20511;-68
2021/07/05 02:02:08;;;;;;;16.20;4.78;;;;;;;15.03;88.02;101006.78;4978304;28;20070;-68
2021/07/05 02:04:35;;;;;;;12.73;4.55;;;;;;;15.04;88.07;101001.34;4979603;28;20402;-68
2021/07/05 02:07:03;;;;;;;13.85;4.53;;;;;;;15.04;88.73;101000.47;4978954;28;20066;-68
2021/07/05 02:09:31;;;;;;;14.10;5.00;;;;;;;15.07;88.61;101003.03;4976826;28;20109;-68
2021/07/05 02:11:59;;;;;;;13.38;4.07;;;;;;;15.03;89.17;101013.03;4984781;28;20112;-69
2021/07/05 02:14:28;;;;;;;11.68;4.22;;;;;;;15.01;89.03;101008.69;4974465;28;20333;-69
2021/07/05 02:16:55;;;;;;;14.57;5.72;;;;;;;15.04;88.71;101001.34;4982447;28;20417;-68
2021/07/05 02:19:23;;;;;;;13.52;4.60;;;;;;;15.07;88.74;101006.56;4974475;28;20066;-69
2021/07/05 02:21:51;;;;;;;9.90;4.07;;;;;;;15.06;88.57;101003.97;4981084;28;20050;-69
2021/07/05 02:24:19;;;;;;;10.52;4.30;;;;;;;15.08;88.83;101007.44;4980235;28;20167;-68
2021/07/05 02:26:47;;;;;;;14.88;4.97;;;;;;;15.03;88.93;101001.41;4977283;28;20081;-67
2021/07/05 02:29:15;;;;;;;12.52;4.40;;;;;;;15.00;89.46;100999.75;4977880;28;20098;-68
2021/07/05 02:31:44;;;;;;;9.68;4.15;;;;;;;14.96;89.37;100995.47;4982971;28;20062;-68
2021/07/05 02:34:12;;;;;;;10.40;3.65;;;;;;;14.97;89.65;100999.03;4976812;28;20105;-68
2021/07/05 02:36:39;;;;;;;10.45;4.32;;;;;;;14.90;89.89;101004.69;4983347;28;20070;-68
2021/07/05 02:39:07;;;;;;;13.40;4.75;;;;;;;14.94;89.90;100998.22;4976854;28;20147;-68
2021/07/05 02:41:36;;;;;;;12.10;4.10;;;;;;;14.93;90.23;100995.59;4977839;28;20109;-68
2021/07/05 02:44:04;;;;;;;15.77;4.97;;;;;;;14.85;89.79;100998.66;4978821;28;20554;-68
2021/07/05 02:46:32;;;;;;;8.98;4.25;;;;;;;14.88;89.87;100997.63;4977667;28;20421;-68
2021/07/05 02:49:02;;;;;;;13.35;4.32;;;;;;;14.87;89.86;100994.09;4980001;28;20077;-68
2021/07/05 02:51:29;;;;;;;13.60;4.63;;;;;;;14.91;89.25;100994.81;4977244;28;20069;-68
2021/07/05 02:53:57;;;;;;;10.00;4.82;;;;;;;14.88;89.62;100998.53;4976773;28;20066;-68
2021/07/05 02:56:25;;;;;;;8.43;3.60;;;;;;;14.84;89.72;100988.84;4979204;28;20069;-68
2021/07/05 02:58:52;;;;;;;13.68;4.25;;;;;;;14.85;89.90;100993.31;4979147;28;20098;-68
2021/07/05 03:01:20;;;;;;;13.43;4.90;;;;;;;14.84;89.65;100993.38;4979519;28;20213;-68
2021/07/05 03:03:48;;;;;;;16.27;4.88;;;;;;;14.78;89.64;100990.97;4978926;28;20529;-68
2021/07/05 03:06:17;;;;;;;11.70;4.57;;;;;;;14.79;89.79;100993.56;4975189;28;20112;-68
2021/07/05 03:08:44;;;;;;;12.18;4.43;;;;;;;14.79;89.59;100990.03;4977613;28;20141;-68
2021/07/05 03:11:13;;;;;;;12.35;4.20;;;;;;;14.77;89.70;100990.09;4977017;28;20108;-68
2021/07/05 03:13:41;;;;;;;17.02;5.72;;;;;;;14.74;89.57;100985.75;4977262;28;20138;-68
2021/07/05 03:16:09;;;;;;;12.15;4.97;;;;;;;14.73;89.84;100986.69;4979366;28;20333;-67
2021/07/05 03:18:36;;;;;;;12.90;4.80;;;;;;;14.73;89.63;100983.13;4975989;28;20046;-67
2021/07/05 03:21:04;;;;;;;12.07;5.13;;;;;;;14.70;89.50;100980.59;4976378;28;20058;-68
2021/07/05 03:23:33;;;;;;;11.82;5.13;;;;;;;14.68;88.98;100982.50;4977451;28;20062;-67
2021/07/05 03:26:02;;;;;;;15.50;5.75;;;;;;;14.67;89.45;100981.59;4974732;28;20137;-68
2021/07/05 03:28:29;;;;;;;14.90;5.05;;;;;;;14.67;89.02;100988.78;4978714;28;20100;-68
2021/07/05 03:30:57;;;;;;;15.35;5.18;;;;;;;14.67;88.82;100988.78;4977022;28;20065;-68
2021/07/05 03:33:25;;;;;;;15.00;4.70;;;;;;;14.68;89.06;100998.59;4979129;28;20161;-68
2021/07/05 03:35:53;;;;;;;14.30;5.30;;;;;;;14.66;88.74;101009.41;4977710;28;20089;-68
2021/07/05 03:38:21;;;;;;;13.05;5.30;;;;;;;14.62;88.84;100998.88;4977742;28;20105;-68
2021/07/05 03:40:50;;;;;;;13.95;5.32;;;;;;;14.62;89.33;100996.19;4981475;28;20120;-68
2021/07/05 03:43:19;;;;;;;13.45;5.18;;;;;;;14.61;89.05;100999.81;4974649;28;20334;-68
2021/07/05 03:45:48;;;;;;;12.30;5.13;;;;;;;14.56;89.06;100989.28;4975469;28;20232;-68
2021/07/05 03:48:16;;;;;;;12.55;4.53;;;;;;;14.55;88.86;100995.56;4973744;28;20042;-68
2021/07/05 03:50:44;;;;;;;12.77;5.40;;;;;;;14.56;88.89;100994.63;4976987;28;20102;-68
2021/07/05 03:53:12;;;;;;;12.45;5.13;;;;;;;14.54;88.55;100989.34;4976498;28;20069;-69
2021/07/05 03:55:40;;;;;;;13.35;5.05;;;;;;;14.57;88.67;100985.63;4978115;28;21308;-68
2021/07/05 03:58:09;;;;;;;13.82;6.07;;;;;;;14.54;88.82;100989.34;4972700;28;20524;-68
2021/07/05 04:00:38;;;;;;;18.10;5.65;;;;;;;14.53;88.46;100989.41;4975770;28;20141;-68
2021/07/05 04:03:07;;;;;;;11.93;5.78;;;;;;;14.53;88.26;100984.03;4974820;28;20334;-68
2021/07/05 04:05:35;;;;;;;14.07;4.93;;;;;;;14.50;88.28;100985.03;4976590;28;20065;-68
2021/07/05 04:08:05;;;;;;;13.68;5.80;;;;;;;14.53;87.99;100978.66;4973302;28;20066;-68
2021/07/05 04:10:33;;;;;;;15.45;6.97;;;;;;;14.50;87.91;100978.81;4976531;28;20517;-69
2021/07/05 04:13:03;;;;;;;19.63;5.97;;;;;;;14.51;88.20;100977.88;4979371;28;20062;-69
2021/07/05 04:15:32;;;;;;;15.13;5.70;;;;;;;14.47;87.86;100965.50;4983197;28;20066;-70
2021/07/05 04:18:00;;;;;;;16.85;5.65;;;;;;;14.48;87.93;100970.81;4974720;28;20144;-68
2021/07/05 04:20:28;;;;;;;19.60;5.95;;;;;;;14.47;87.63;100961.03;4977325;28;20066;-69
2021/07/05 04:22:56;;;;;;;13.55;5.18;;;;;;;14.51;88.07;100967.13;4975686;28;20065;-69
2021/07/05 04:25:24;;;;;;;15.23;6.05;;;;;;;14.49;87.70;100955.56;4977397;28;20046;-69
2021/07/05 04:27:54;;;;;;;13.43;5.80;;;;;;;14.49;87.51;100950.19;4978952;28;20072;-69
2021/07/05 04:30:26;;;;;;;16.70;5.78;;;;;;;14.53;87.50;100962.56;4976301;28;20062;-69
2021/07/05 04:32:55;;;;;;;19.33;5.85;;;;;;;14.51;87.57;100956.41;4974159;28;20086;-69
2021/07/05 04:35:24;;;;;;;12.35;5.32;;;;;;;14.52;87.59;100959.00;4974372;28;20062;-68
2021/07/05 04:37:53;;;;;;;20.98;6.25;;;;;;;14.51;87.39;100954.56;4975940;28;20141;-69
2021/07/05 04:40:24;;;;;;;14.05;6.32;;;;;;;14.52;87.66;100956.31;4976534;28;20075;-69
2021/07/05 04:42:52;;;;;;;19.90;5.75;;;;;;;14.51;87.38;100956.41;4977234;28;20066;-69
2021/07/05 04:45:21;;;;;;;18.48;6.40;;;;;;;14.47;87.45;100962.81;4972349;28;20058;-69
2021/07/05 04:47:50;;;;;;;19.92;5.85;;;;;;;14.47;87.48;100954.78;4978872;28;20070;-69
2021/07/05 04:50:19;;;;;;;21.63;6.50;;;;;;;14.50;87.09;100955.50;4975470;28;20156;-70
2021/07/05 04:52:48;;;;;;;17.13;5.85;;;;;;;14.52;87.17;100958.13;4980914;28;20058;-69
2021/07/05 04:55:18;;;;;;;14.32;5.20;;;;;;;14.50;87.01;100965.38;4979525;28;20446;-70
2021/07/05 04:57:47;;;;;;;18.73;5.47;;;;;;;14.48;87.13;100967.25;4980187;28;20458;-69
2021/07/05 05:00:18;;;;;;;13.98;5.10;;;;;;;14.52;86.65;100972.44;4978597;28;20497;-69
2021/07/05 05:02:59;;;;;;;14.70;5.22;;;;;;;14.57;86.14;100962.34;4979325;28;20067;-70
2021/07/05 05:05:29;;;;;;;15.05;4.80;;;;;;;14.57;86.65;100970.41;4977748;28;20117;-69
2021/07/05 05:07:57;;;;;;;12.75;5.00;;;;;;;14.56;86.45;100970.47;4981303;28;20066;-70
2021/07/05 05:10:25;;;;;;;13.60;5.82;;;;;;;14.62;86.68;100980.06;4975379;28;20113;-69
2021/07/05 05:12:54;;;;;;;15.90;5.75;;;;;;;14.67;86.88;100983.41;4983022;28;20110;-69
2021/07/05 05:15:22;;;;;;;13.02;5.60;;;;;;;14.67;87.05;100980.72;4976409;28;20067;-69
2021/07/05 05:17:50;;;;;;;12.88;5.32;;;;;;;14.71;86.43;100972.47;4981801;28;20137;-69
2021/07/05 05:20:19;;;;;;;19.00;5.80;;;;;;;14.68;86.70;100977.13;4981166;28;20055;-69
2021/07/05 05:22:49;;;;;;;12.32;5.75;;;;;;;14.71;86.49;100977.84;4978643;28;20074;-69
2021/07/05 05:25:18;;;;;;;18.33;6.57;;;;;;;14.74;86.33;100979.50;4980740;28;20133;-68
2021/07/05 05:27:47;;;;;;;12.25;5.38;;;;;;;14.76;86.49;100980.28;4980571;28;20548;-69
2021/07/05 05:30:17;;;;;;;12.43;5.07;;;;;;;14.77;86.12;100970.44;4978709;28;20058;-69
2021/07/05 05:32:46;;;;;;;12.95;4.72;;;;;;;14.81;86.41;100975.56;4981118;28;20062;-69
2021/07/05 05:35:17;;;;;;;14.30;7.07;;;;;;;14.79;85.84;100981.97;4980047;28;20093;-68
2021/07/05 05:37:44;;;;;;;12.60;5.43;;;;;;;14.78;85.76;100981.09;4981145;28;20120;-68
2021/07/05 05:40:15;;;;;;;18.98;6.05;;;;;;;14.80;85.74;100979.22;4982868;28;20090;-68
2021/07/05 05:42:42;;;;;;;12.93;5.53;;;;;;;14.79;85.66;100977.47;4975993;28;20070;-68
2021/07/05 05:45:12;;;;;;;13.50;5.60;;;;;;;14.77;85.61;100978.50;4977782;28;20173;-68
2021/07/05 05:47:40;;;;;;;15.85;6.05;;;;;;;14.73;85.82;100981.31;4975942;28;20058;-68
2021/07/05 05:50:09;;;;;;;14.35;5.50;;;;;;;15.49;84.73;100981.22;4979914;28;20081;-69
2021/07/05 05:52:37;;;;;;;16.27;5.70;;;;;;;15.88;81.79;100973.88;4977597;28;20071;-68
2021/07/05 05:55:06;;;;;;;20.17;5.88;;;;;;;16.39;81.27;100977.44;4985940;28;20058;-68
2021/07/05 05:57:37;;;;;;;14.90;5.45;;;;;;;16.55;78.82;100971.22;4988117;28;20396;-68
2021/07/05 06:00:10;;;;;;;14.20;5.10;;;;;;;16.68;77.33;100974.97;4977098;28;20105;-68
2021/07/05 06:02:37;;;;;;;11.15;4.88;;;;;;;17.02;77.16;100975.81;4981032;28;20113;-68
2021/07/05 06:05:06;;;;;;;10.40;5.07;;;;;;;17.60;75.70;100976.09;4980801;28;20090;-69
2021/07/05 06:07:34;;;;;;;11.45;4.80;;;;;;;17.04;76.09;100978.44;4975654;28;20042;-69
2021/07/05 06:10:01;;;;;;;16.60;5.10;;;;;;;16.81;76.09;100980.56;4979563;28;20077;-68
2021/07/05 06:12:30;;;;;;;16.38;5.90;;;;;;;17.18;75.91;100981.22;4973179;28;20074;-68
2021/07/05 06:14:59;;;;;;;13.77;4.90;;;;;;;17.62;73.37;100972.34;4980041;28;20124;-68
2021/07/05 06:17:27;;;;;;;14.82;5.13;;;;;;;17.99;73.13;100977.38;4974335;28;20058;-69
2021/07/05 06:19:55;;;;;;;12.85;5.18;;;;;;;17.99;72.17;100982.78;4978630;28;20239;-69
2021/07/05 06:22:27;;;;;;;13.02;4.25;;;;;;;18.07;71.88;100972.41;4979420;28;20070;-70
2021/07/05 06:24:55;;;;;;;12.35;5.00;;;;;;;17.54;72.40;100980.91;4979220;28;20121;-69
2021/07/05 06:27:24;;;;;;;11.65;4.70;;;;;;;17.16;74.63;100978.59;4983219;28;20422;-69
2021/07/05 06:29:51;;;;;;;11.70;4.57;;;;;;;17.11;74.71;100983.41;4977092;28;20046;-69
2021/07/05 06:32:21;;;;;;;14.27;4.90;;;;;;;16.91;75.59;100981.81;4977723;28;20071;-69
2021/07/05 06:34:48;;;;;;;13.57;5.28;;;;;;;16.77;76.01;100979.88;4974867;28;20228;-69
2021/07/05 06:37:16;;;;;;;13.88;5.30;;;;;;;16.81;77.01;100989.50;4978530;28;20097;-68
2021/07/05 06:39:44;;;;;;;16.58;4.95;;;;;;;16.91;76.77;100991.75;4976481;28;20069;-69
2021/07/05 06:42:11;;;;;;;11.68;5.03;;;;;;;17.25;74.91;100996.09;4977201;28;20062;-69
2021/07/05 06:44:39;;;;;;;13.77;5.43;;;;;;;17.95;73.29;100995.59;4973543;28;20454;-68
2021/07/05 06:47:07;;;;;;;8.95;4.88;;;;;;;18.16;71.98;100995.25;4978592;28;20082;-69
2021/07/05 06:49:36;;;;;;;13.52;4.85;;;;;;;17.57;72.51;100993.34;4977032;28;20077;-69
2021/07/05 06:52:04;;;;;;;15.70;5.68;;;;;;;18.23;70.11;100986.66;4979929;28;20781;-69
2021/07/05 06:54:32;;;;;;;14.85;5.10;;;;;;;18.57;69.65;100998.06;4974678;28;20173;-69
2021/07/05 06:57:00;;;;;;;11.65;4.35;;;;;;;18.71;68.85;100994.50;4978187;28;20127;-69
2021/07/05 06:59:28;;;;;;;11.07;4.72;;;;;;;18.80;68.16;100987.66;4972657;28;20069;-69
2021/07/05 07:01:55;;;;;;;14.18;4.97;;;;;;;18.26;68.76;100994.59;4980548;28;20540;-69
2021/07/05 07:04:23;;;;;;;18.67;5.40;;;;;;;18.18;69.91;100996.03;4975882;28;20113;-70
2021/07/05 07:06:53;;;;;;;15.30;5.30;;;;;;;18.65;69.88;101000.28;4978067;28;20338;-70
2021/07/05 07:09:20;;;;;;;14.88;5.53;;;;;;;19.19;67.82;100997.72;4975621;28;20183;-70
2021/07/05 07:11:48;;;;;;;15.15;5.25;;;;;;;18.82;68.12;101012.75;4975753;28;20090;-70
2021/07/05 07:14:19;;;;;;;15.20;5.25;;;;;;;18.82;67.82;101015.44;4979200;28;20062;-71
2021/07/05 07:16:52;;;;;;;16.60;5.32;;;;;;;18.57;68.52;101019.69;4971910;28;20062;-70
2021/07/05 07:19:19;;;;;;;13.30;5.75;;;;;;;18.25;69.76;101014.47;4977675;28;20067;-68
2021/07/05 07:21:50;;;;;;;18.73;6.60;;;;;;;18.11;69.99;101015.28;4976199;28;20473;-69
2021/07/05 07:24:20;;;;;;;18.20;6.72;;;;;;;18.11;69.99;101004.50;4975608;28;20220;-70
2021/07/05 07:26:48;;;;;;;14.82;5.68;;;;;;;18.25;70.30;101017.16;4974818;28;20054;-69
2021/07/05 07:29:16;;;;;;;15.95;7.40;;;;;;;18.06;70.11;101008.44;4974993;28;20371;-69
2021/07/05 07:31:44;;;;;;;14.73;6.93;;;;;;;18.37;69.42;101010.16;4975722;28;20125;-69
2021/07/05 07:34:12;;;;;;;14.13;7.00;;;;;;;18.38;69.62;101022.66;4977573;28;20513;-69
2021/07/05 07:36:40;;;;;;;15.93;7.40;;;;;;;18.72;69.23;101014.28;4975590;28;20505;-72
2021/07/05 07:39:11;;;;;;;13.95;7.10;;;;;;;18.48;69.54;101009.47;4979530;28;20309;-71
2021/07/05 07:41:40;;;;;;;15.82;7.22;;;;;;;18.75;69.06;101012.25;4979283;28;20062;-70
2021/07/05 07:44:08;;;;;;;16.95;7.45;;;;;;;18.97;68.49;101017.19;4977711;28;20062;-70
2021/07/05 07:46:36;;;;;;;17.90;7.95;;;;;;;18.80;68.14;101017.38;4978649;28;20278;-70
2021/07/05 07:49:04;;;;;;;13.18;7.60;;;;;;;18.56;68.15;101014.38;4974335;28;20568;-70
2021/07/05 07:51:32;;;;;;;17.88;7.65;;;;;;;18.81;68.50;101019.09;4974010;28;20637;-71
2021/07/05 07:54:00;;;;;;;16.45;7.75;;;;;;;19.12;67.94;101018.03;4979450;28;20442;-70
2021/07/05 07:56:30;;;;;;;14.70;6.95;;;;;;;18.85;67.85;101026.09;4973928;28;20520;-70
2021/07/05 07:59:01;;;;;;;17.02;7.78;;;;;;;18.85;68.05;101028.81;4977650;28;20172;-70
2021/07/05 08:01:30;;;;;;;16.30;8.77;;;;;;;18.78;68.60;101024.69;4975639;28;20074;-70
2021/07/05 08:03:58;;;;;;;14.93;7.88;;;;;;;19.03;67.45;101027.63;4976038;28;20298;-70
2021/07/05 08:06:26;;;;;;;19.33;9.40;;;;;;;18.85;68.09;101032.38;4978532;28;20662;-70
2021/07/05 08:08:55;;;;;;;19.45;8.43;;;;;;;19.12;67.26;101030.66;4973743;28;20086;-70
2021/07/05 08:11:23;;;;;;;16.25;8.93;;;;;;;19.37;67.23;101029.94;4979933;28;20157;-70
2021/07/05 08:13:51;;;;;;;14.38;9.05;;;;;;;18.94;66.17;101030.03;4975093;28;20054;-70
2021/07/05 08:16:21;;;;;;;20.92;8.73;;;;;;;19.14;66.87;101026.91;4974951;28;20366;-70
2021/07/05 08:18:49;;;;;;;14.30;8.65;;;;;;;19.08;66.11;101021.03;4976044;28;20125;-70
2021/07/05 08:21:17;;;;;;;17.08;9.02;;;;;;;19.17;66.54;101012.31;4973140;28;20089;-70
2021/07/05 08:23:46;;;;;;;15.65;8.18;;;;;;;19.21;65.74;101017.44;4973672;28;20062;-73
2021/07/05 08:26:14;;;;;;;14.98;8.40;;;;;;;19.42;66.56;101023.25;4974864;28;20066;-73
2021/07/05 08:28:42;;;;;;;19.20;8.00;;;;;;;19.57;65.02;101015.94;4972465;28;20536;-72
2021/07/05 08:31:10;;;;;;;12.68;7.35;;;;;;;19.69;64.60;100999.84;4981284;28;20117;-73
2021/07/05 08:33:39;;;;;;;14.75;7.28;;;;;;;20.14;62.52;101003.09;4975431;28;20058;-72
2021/07/05 08:36:07;;;;;;;15.15;6.97;;;;;;;20.18;63.11;101004.63;4979178;28;20047;-73
2021/07/05 08:38:35;;;;;;;16.20;6.28;;;;;;;20.32;62.53;101006.38;4977569;28;20066;-72
2021/07/05 08:41:03;;;;;;;18.55;6.82;;;;;;;19.76;62.08;101009.31;4976953;28;20074;-72
2021/07/05 08:43:32;;;;;;;15.68;7.22;;;;;;;20.23;60.82;101004.31;4977990;28;20396;-73
2021/07/05 08:46:02;;;;;;;12.43;6.05;;;;;;;20.77;60.17;101003.22;4979736;28;20066;-73
2021/07/05 08:48:32;;;;;;;14.85;6.30;;;;;;;20.75;59.84;101000.63;4971370;28;20058;-71
2021/07/05 08:51:03;;;;;;;11.75;6.22;;;;;;;20.44;59.83;101000.06;4977864;28;20069;-71
2021/07/05 08:53:32;;;;;;;16.02;6.13;;;;;;;20.37;59.94;100998.78;4975362;28;20318;-70
2021/07/05 08:56:00;;;;;;;13.70;6.20;;;;;;;20.43;60.32;101000.19;4975062;28;20580;-71
2021/07/05 08:58:27;;;;;;;10.05;5.20;;;;;;;19.79;61.01;101003.72;4975620;28;20166;-71
2021/07/05 09:00:55;;;;;;;18.05;6.28;;;;;;;19.78;62.28;100999.25;4971323;28;20113;-69
2021/07/05 09:03:24;;;;;;;11.30;5.70;;;;;;;19.66;63.08;101006.34;4976246;28;20486;-68
2021/07/05 09:06:11;;;;;;;14.50;6.22;;;;;;;19.71;63.91;100998.78;4972521;28;20070;-69
2021/07/05 09:08:42;;;;;;;12.55;5.70;;;;;;;19.79;63.46;101003.72;4978599;28;20434;-68
2021/07/05 09:11:12;;;;;;;11.32;5.63;;;;;;;19.70;62.47;101002.47;4975566;28;20098;-68
2021/07/05 09:13:48;;;;;;;12.40;5.10;;;;;;;21.02;59.55;100995.03;4975649;28;20070;-71
2021/07/05 09:16:32;;;;;;;13.48;4.97;;;;;;;20.84;59.20;101005.38;4976322;28;20074;-71
2021/07/05 09:19:01;;;;;;;14.35;5.13;;;;;;;20.59;59.49;100999.97;4978516;28;20169;-69
2021/07/05 09:21:32;;;;;;;10.98;5.10;;;;;;;20.42;59.71;101001.19;4976961;28;20042;-69
2021/07/05 09:24:02;;;;;;;10.80;5.07;;;;;;;20.23;59.41;101010.59;4979865;28;20458;-71
2021/07/05 09:26:33;;;;;;;10.65;4.75;;;;;;;20.14;59.84;101009.41;4974610;28;20346;-69
2021/07/05 09:29:04;;;;;;;12.15;5.25;;;;;;;20.17;60.53;101007.44;4981594;28;20090;-71
2021/07/05 09:31:41;;;;;;;13.18;5.38;;;;;;;19.93;61.18;100997.34;4973525;28;20051;-71
2021/07/05 09:34:17;;;;;;;11.68;5.35;;;;;;;20.09;62.25;101003.44;4977607;28;20066;-69
2021/07/05 09:36:47;;;;;;;10.88;5.38;;;;;;;19.99;61.53;101002.34;4975589;28;20066;-70
2021/07/05 09:39:17;;;;;;;12.85;5.00;;;;;;;19.86;61.96;101005.00;4977540;28;20416;-71
2021/07/05 09:41:46;;;;;;;10.32;5.47;;;;;;;19.67;61.26;101002.66;4976902;28;20476;-71
2021/07/05 09:44:16;;;;;;;9.32;4.70;;;;;;;19.61;62.23;101005.78;4975724;28;20062;-71
2021/07/05 09:46:46;;;;;;;11.07;4.72;;;;;;;20.10;60.91;100997.03;4974472;28;20281;-71
2021/07/05 09:49:24;;;;;;;10.23;4.45;;;;;;;20.13;59.58;100999.53;4978194;28;20067;-71
2021/07/05 09:52:09;;;;;;;11.57;4.80;;;;;;;20.78;58.88;101000.41;4972977;28;20069;-70
2021/07/05 09:54:38;;;;;;;8.15;4.07;;;;;;;20.50;57.88;100999.66;4981730;28;20066;-70
2021/07/05 09:57:25;;;;;;;11.85;4.30;;;;;;;21.14;56.64;100997.81;4974062;28;20064;-71
2021/07/05 09:59:53;;;;;;;12.40;4.65;;;;;;;20.63;58.41;101002.38;4979773;28;20086;-70
2021/07/05 10:02:21;;;;;;;10.32;4.40;;;;;;;20.64;57.60;101000.53;4975364;28;20089;-70
2021/07/05 10:04:50;;;;;;;13.48;4.50;;;;;;;20.45;58.35;101006.34;4977792;28;20140;-70
2021/07/05 10:07:19;;;;;;;10.15;4.03;;;;;;;20.39;56.23;101004.09;4976964;28;20144;-70
2021/07/05 10:09:48;;;;;;;10.80;4.38;;;;;;;21.00;55.71;100997.00;4976949;28;20067;-73
2021/07/05 10:12:19;;;;;;;12.68;3.97;;;;;;;21.38;54.75;101000.53;4976214;28;20067;-73
2021/07/05 10:14:58;;;;;;;12.15;3.70;;;;;;;21.03;54.96;100998.63;4975891;28;20183;-73
2021/07/05 10:17:28;;;;;;;10.75;4.05;;;;;;;20.44;55.73;101005.50;4974648;28;20253;-73
2021/07/05 10:19:56;;;;;;;10.88;3.65;;;;;;;20.43;55.67;101011.91;4980199;28;20475;-72
2021/07/05 10:22:26;;;;;;;11.55;4.18;;;;;;;20.31;56.21;101001.91;4975443;28;20073;-72
2021/07/05 10:24:54;;;;;;;9.93;4.32;;;;;;;20.47;56.83;101001.72;4979820;28;20077;-71
2021/07/05 10:27:24;;;;;;;10.38;3.70;;;;;;;20.16;55.88;101001.19;4982622;28;20520;-72
2021/07/05 10:29:52;;;;;;;9.90;3.90;;;;;;;20.19;56.77;100998.22;4977840;28;20055;-72
2021/07/05 10:32:20;;;;;;;8.20;4.30;;;;;;;20.07;58.91;101005.38;4981672;28;20100;-72
2021/07/05 10:34:52;;;;;;;10.63;5.72;;;;;;;19.52;66.91;101033.47;4974575;28;20062;-72
2021/07/05 10:37:28;;;;;;;15.02;7.25;;;;;;;18.69;72.20;101030.69;4976012;28;20051;-74
2021/07/05 10:39:56;;;;;;;16.45;7.25;;;;;;;18.58;72.40;101036.78;4977759;28;20062;-74
2021/07/05 10:42:29;;;;;;;13.00;6.78;;;;;;;18.22;75.59;101035.41;4974899;28;20124;-73
2021/07/05 10:44:57;;;;;;;15.60;8.15;;;;;;;18.34;76.44;101039.16;4979380;28;20109;-73
2021/07/05 10:47:42;;;;;;;15.02;8.80;;;;;;;17.65;78.27;101036.91;4977738;28;21442;-74
2021/07/05 10:50:38;;;;;;;13.23;8.23;;;;;;;17.81;79.82;101036.91;4973161;28;20070;-71
2021/07/05 10:53:07;;;;;;;14.07;7.18;;;;;;;17.84;79.80;101043.91;4978984;28;20063;-71
2021/07/05 10:55:36;;;;;;;15.18;7.47;;;;;;;17.83;80.71;101043.06;4975555;28;20205;-72
2021/07/05 10:58:15;;;;;;;16.95;6.30;;;;;;;17.72;80.15;101037.41;4983293;28;20093;-72
2021/07/05 11:00:45;;;;;;;13.07;7.22;;;;;;;17.72;81.54;101037.41;4979352;28;20330;-70
2021/07/05 11:03:47;;;;;;;16.45;6.60;;;;;;;18.21;81.41;101030.94;4980873;28;20126;-70
2021/07/05 11:06:41;;;;;;;11.35;6.10;;;;;;;18.38;79.82;101032.63;4977392;28;20070;-69
2021/07/05 11:09:11;;;;;;;13.50;6.15;;;;;;;18.46;79.59;101036.56;4974882;28;20179;-69
2021/07/05 11:11:47;;;;;;;16.10;7.00;;;;;;;18.48;80.43;101040.03;4978852;28;20756;-69
2021/07/05 11:14:20;;;;;;;16.45;7.18;;;;;;;17.81;82.38;101036.91;4974692;28;20066;-69
2021/07/05 11:16:53;;;;;;;15.88;7.00;;;;;;;17.89;80.68;101031.06;4979209;28;20046;-69
2021/07/05 11:19:32;;;;;;;14.27;7.60;;;;;;;17.87;80.68;101033.84;4976173;28;20149;-70
2021/07/05 11:22:04;;;;;;;13.05;6.85;;;;;;;17.91;79.49;101029.13;4976764;28;20407;-70
2021/07/05 11:24:58;;;;;;;13.13;6.28;;;;;;;18.23;80.31;101029.00;4973569;28;20042;-71
2021/07/05 11:27:54;;;;;;;16.77;6.70;;;;;;;18.05;79.20;101017.53;4976047;28;20453;-71